sensor_id;sensor_type;location;lat;lon;timestamp;P1;durP1;ratioP1;P2;durP2;ratioP2
9722;SDS011;4900;49.306;8.500;2023-04-25T00:01:10;3.80;;;2.43;;
9722;SDS011;4900;49.306;8.500;2023-04-25T00:03:37;2.40;;;2.20;;
9722;SDS011;4900;49.306;8.500;2023-04-25T00:06:04;3.50;;;2.40;;
9722;SDS011;4900;49.306;8.500;2023-04-25T00:08:30;3.00;;;2.40;;
9722;SDS011;4900;49.306;8.500;2023-04-25T00:10:56;2.90;;;2.37;;
9722;SDS011;4900;49.306;8.500;2023-04-25T00:13:22;2.50;;;2.30;;
9722;SDS011;4900;49.306;8.500;2023-04-25T00:15:47;2.50;;;2.30;;
9722;SDS011;4900;49.306;8.500;2023-04-25T00:18:13;2.73;;;2.33;;
9722;SDS011;4900;49.306;8.500;2023-04-25T00:20:39;3.23;;;2.60;;
9722;SDS011;4900;49.306;8.500;2023-04-25T00:23:05;2.60;;;2.40;;
9722;SDS011;4900;49.306;8.500;2023-04-25T00:25:31;3.30;;;2.80;;
9722;SDS011;4900;49.306;8.500;2023-04-25T00:27:56;3.33;;;2.87;;
9722;SDS011;4900;49.306;8.500;2023-04-25T00:30:22;2.97;;;2.50;;
9722;SDS011;4900;49.306;8.500;2023-04-25T00:32:47;3.27;;;2.50;;
9722;SDS011;4900;49.306;8.500;2023-04-25T00:35:13;3.13;;;2.50;;
9722;SDS011;4900;49.306;8.500;2023-04-25T00:37:39;2.83;;;2.50;;
9722;SDS011;4900;49.306;8.500;2023-04-25T00:40:06;3.03;;;2.60;;
9722;SDS011;4900;49.306;8.500;2023-04-25T00:42:32;2.50;;;2.30;;
9722;SDS011;4900;49.306;8.500;2023-04-25T00:45:00;2.60;;;2.40;;
9722;SDS011;4900;49.306;8.500;2023-04-25T00:47:26;3.00;;;2.50;;
9722;SDS011;4900;49.306;8.500;2023-04-25T00:49:53;3.77;;;2.57;;
9722;SDS011;4900;49.306;8.500;2023-04-25T00:52:19;3.50;;;2.70;;
9722;SDS011;4900;49.306;8.500;2023-04-25T00:54:45;2.93;;;2.60;;
9722;SDS011;4900;49.306;8.500;2023-04-25T00:57:11;3.80;;;3.03;;
9722;SDS011;4900;49.306;8.500;2023-04-25T00:59:37;3.40;;;2.50;;
9722;SDS011;4900;49.306;8.500;2023-04-25T01:02:03;3.10;;;2.80;;
9722;SDS011;4900;49.306;8.500;2023-04-25T01:04:30;4.77;;;3.63;;
9722;SDS011;4900;49.306;8.500;2023-04-25T01:06:55;3.97;;;3.57;;
9722;SDS011;4900;49.306;8.500;2023-04-25T01:09:21;3.20;;;2.90;;
9722;SDS011;4900;49.306;8.500;2023-04-25T01:11:47;4.77;;;3.13;;
9722;SDS011;4900;49.306;8.500;2023-04-25T01:14:13;3.70;;;3.07;;
9722;SDS011;4900;49.306;8.500;2023-04-25T01:16:39;3.77;;;2.70;;
9722;SDS011;4900;49.306;8.500;2023-04-25T01:19:07;3.60;;;3.00;;
9722;SDS011;4900;49.306;8.500;2023-04-25T01:21:36;3.77;;;2.90;;
9722;SDS011;4900;49.306;8.500;2023-04-25T01:24:01;3.53;;;3.00;;
9722;SDS011;4900;49.306;8.500;2023-04-25T01:26:27;3.60;;;2.80;;
9722;SDS011;4900;49.306;8.500;2023-04-25T01:28:53;2.60;;;2.30;;
9722;SDS011;4900;49.306;8.500;2023-04-25T01:31:19;3.07;;;2.47;;
9722;SDS011;4900;49.306;8.500;2023-04-25T01:33:45;3.60;;;2.57;;
9722;SDS011;4900;49.306;8.500;2023-04-25T01:36:10;3.07;;;2.53;;
9722;SDS011;4900;49.306;8.500;2023-04-25T01:38:37;2.80;;;2.50;;
9722;SDS011;4900;49.306;8.500;2023-04-25T01:41:03;3.03;;;2.50;;
9722;SDS011;4900;49.306;8.500;2023-04-25T01:43:28;3.27;;;2.40;;
9722;SDS011;4900;49.306;8.500;2023-04-25T01:45:54;3.17;;;2.50;;
9722;SDS011;4900;49.306;8.500;2023-04-25T01:48:20;3.57;;;2.87;;
9722;SDS011;4900;49.306;8.500;2023-04-25T01:50:47;2.47;;;2.27;;
9722;SDS011;4900;49.306;8.500;2023-04-25T01:53:13;2.50;;;2.20;;
9722;SDS011;4900;49.306;8.500;2023-04-25T01:55:39;3.20;;;2.50;;
9722;SDS011;4900;49.306;8.500;2023-04-25T01:58:05;3.20;;;2.60;;
9722;SDS011;4900;49.306;8.500;2023-04-25T02:00:34;3.43;;;3.03;;
9722;SDS011;4900;49.306;8.500;2023-04-25T02:03:04;4.13;;;2.53;;
9722;SDS011;4900;49.306;8.500;2023-04-25T02:05:37;3.80;;;2.90;;
9722;SDS011;4900;49.306;8.500;2023-04-25T02:08:04;3.00;;;2.60;;
9722;SDS011;4900;49.306;8.500;2023-04-25T02:10:31;2.90;;;2.50;;
9722;SDS011;4900;49.306;8.500;2023-04-25T02:12:57;3.30;;;2.97;;
9722;SDS011;4900;49.306;8.500;2023-04-25T02:15:23;3.37;;;2.77;;
9722;SDS011;4900;49.306;8.500;2023-04-25T02:17:49;2.60;;;2.40;;
9722;SDS011;4900;49.306;8.500;2023-04-25T02:20:14;2.90;;;2.50;;
9722;SDS011;4900;49.306;8.500;2023-04-25T02:22:41;3.13;;;2.80;;
9722;SDS011;4900;49.306;8.500;2023-04-25T02:25:07;4.07;;;2.83;;
9722;SDS011;4900;49.306;8.500;2023-04-25T02:27:34;3.50;;;2.80;;
9722;SDS011;4900;49.306;8.500;2023-04-25T02:30:00;3.33;;;2.83;;
9722;SDS011;4900;49.306;8.500;2023-04-25T02:32:26;3.00;;;2.47;;
9722;SDS011;4900;49.306;8.500;2023-04-25T02:34:52;4.10;;;2.87;;
9722;SDS011;4900;49.306;8.500;2023-04-25T02:37:18;3.00;;;2.63;;
9722;SDS011;4900;49.306;8.500;2023-04-25T02:39:43;3.00;;;2.60;;
9722;SDS011;4900;49.306;8.500;2023-04-25T02:42:09;3.13;;;2.67;;
9722;SDS011;4900;49.306;8.500;2023-04-25T02:44:35;3.60;;;2.97;;
9722;SDS011;4900;49.306;8.500;2023-04-25T02:47:01;3.60;;;3.13;;
9722;SDS011;4900;49.306;8.500;2023-04-25T02:49:27;3.33;;;2.80;;
9722;SDS011;4900;49.306;8.500;2023-04-25T02:51:53;3.27;;;2.87;;
9722;SDS011;4900;49.306;8.500;2023-04-25T02:54:18;4.50;;;3.33;;
9722;SDS011;4900;49.306;8.500;2023-04-25T02:56:43;3.23;;;2.70;;
9722;SDS011;4900;49.306;8.500;2023-04-25T02:59:09;4.13;;;3.07;;
9722;SDS011;4900;49.306;8.500;2023-04-25T03:01:34;4.20;;;3.07;;
9722;SDS011;4900;49.306;8.500;2023-04-25T03:04:01;3.37;;;2.77;;
9722;SDS011;4900;49.306;8.500;2023-04-25T03:06:26;3.97;;;2.90;;
9722;SDS011;4900;49.306;8.500;2023-04-25T03:08:52;3.90;;;2.50;;
9722;SDS011;4900;49.306;8.500;2023-04-25T03:11:17;3.40;;;2.77;;
9722;SDS011;4900;49.306;8.500;2023-04-25T03:13:45;3.70;;;2.70;;
9722;SDS011;4900;49.306;8.500;2023-04-25T03:16:10;5.03;;;2.90;;
9722;SDS011;4900;49.306;8.500;2023-04-25T03:18:36;3.17;;;2.50;;
9722;SDS011;4900;49.306;8.500;2023-04-25T03:21:02;3.30;;;2.93;;
9722;SDS011;4900;49.306;8.500;2023-04-25T03:23:27;3.67;;;3.03;;
9722;SDS011;4900;49.306;8.500;2023-04-25T03:25:53;3.60;;;2.77;;
9722;SDS011;4900;49.306;8.500;2023-04-25T03:28:18;3.90;;;2.83;;
9722;SDS011;4900;49.306;8.500;2023-04-25T03:30:44;3.30;;;3.00;;
9722;SDS011;4900;49.306;8.500;2023-04-25T03:33:09;3.20;;;2.67;;
9722;SDS011;4900;49.306;8.500;2023-04-25T03:35:34;3.40;;;2.93;;
9722;SDS011;4900;49.306;8.500;2023-04-25T03:38:00;2.97;;;2.37;;
9722;SDS011;4900;49.306;8.500;2023-04-25T03:40:25;3.57;;;2.80;;
9722;SDS011;4900;49.306;8.500;2023-04-25T03:42:51;3.80;;;2.80;;
9722;SDS011;4900;49.306;8.500;2023-04-25T03:45:16;3.53;;;2.73;;
9722;SDS011;4900;49.306;8.500;2023-04-25T03:47:41;3.77;;;2.83;;
9722;SDS011;4900;49.306;8.500;2023-04-25T03:50:07;2.63;;;2.40;;
9722;SDS011;4900;49.306;8.500;2023-04-25T03:52:33;3.67;;;2.80;;
9722;SDS011;4900;49.306;8.500;2023-04-25T03:54:58;3.37;;;2.83;;
9722;SDS011;4900;49.306;8.500;2023-04-25T03:57:24;3.30;;;2.83;;
9722;SDS011;4900;49.306;8.500;2023-04-25T03:59:49;3.03;;;2.63;;
9722;SDS011;4900;49.306;8.500;2023-04-25T04:02:14;4.40;;;2.90;;
9722;SDS011;4900;49.306;8.500;2023-04-25T04:04:40;3.17;;;2.73;;
9722;SDS011;4900;49.306;8.500;2023-04-25T04:07:05;3.50;;;2.97;;
9722;SDS011;4900;49.306;8.500;2023-04-25T04:09:31;3.93;;;3.37;;
9722;SDS011;4900;49.306;8.500;2023-04-25T04:11:56;3.40;;;3.10;;
9722;SDS011;4900;49.306;8.500;2023-04-25T04:14:22;3.90;;;2.87;;
9722;SDS011;4900;49.306;8.500;2023-04-25T04:16:47;3.67;;;3.07;;
9722;SDS011;4900;49.306;8.500;2023-04-25T04:19:12;3.97;;;3.07;;
9722;SDS011;4900;49.306;8.500;2023-04-25T04:21:38;2.93;;;2.60;;
9722;SDS011;4900;49.306;8.500;2023-04-25T04:24:03;3.43;;;2.90;;
9722;SDS011;4900;49.306;8.500;2023-04-25T04:26:31;3.20;;;2.87;;
9722;SDS011;4900;49.306;8.500;2023-04-25T04:28:57;4.37;;;2.80;;
9722;SDS011;4900;49.306;8.500;2023-04-25T04:31:24;3.63;;;2.87;;
9722;SDS011;4900;49.306;8.500;2023-04-25T04:33:49;3.40;;;2.80;;
9722;SDS011;4900;49.306;8.500;2023-04-25T04:36:16;2.93;;;2.57;;
9722;SDS011;4900;49.306;8.500;2023-04-25T04:38:44;3.43;;;2.80;;
9722;SDS011;4900;49.306;8.500;2023-04-25T04:41:10;4.17;;;3.00;;
9722;SDS011;4900;49.306;8.500;2023-04-25T04:43:36;4.60;;;3.20;;
9722;SDS011;4900;49.306;8.500;2023-04-25T04:46:01;4.17;;;3.20;;
9722;SDS011;4900;49.306;8.500;2023-04-25T04:48:28;4.37;;;3.33;;
9722;SDS011;4900;49.306;8.500;2023-04-25T04:50:54;3.93;;;3.23;;
9722;SDS011;4900;49.306;8.500;2023-04-25T04:53:19;4.27;;;3.23;;
9722;SDS011;4900;49.306;8.500;2023-04-25T04:55:45;3.63;;;3.13;;
9722;SDS011;4900;49.306;8.500;2023-04-25T04:58:11;3.90;;;3.20;;
9722;SDS011;4900;49.306;8.500;2023-04-25T05:00:36;3.63;;;3.10;;
9722;SDS011;4900;49.306;8.500;2023-04-25T05:03:02;5.07;;;3.90;;
9722;SDS011;4900;49.306;8.500;2023-04-25T05:05:27;4.83;;;3.90;;
9722;SDS011;4900;49.306;8.500;2023-04-25T05:07:53;5.90;;;4.20;;
9722;SDS011;4900;49.306;8.500;2023-04-25T05:10:18;4.53;;;3.53;;
9722;SDS011;4900;49.306;8.500;2023-04-25T05:12:46;4.50;;;3.37;;
9722;SDS011;4900;49.306;8.500;2023-04-25T05:15:12;4.50;;;3.53;;
9722;SDS011;4900;49.306;8.500;2023-04-25T05:17:37;4.33;;;3.63;;
9722;SDS011;4900;49.306;8.500;2023-04-25T05:20:04;4.00;;;3.50;;
9722;SDS011;4900;49.306;8.500;2023-04-25T05:22:34;4.27;;;3.53;;
9722;SDS011;4900;49.306;8.500;2023-04-25T05:25:00;4.67;;;3.70;;
9722;SDS011;4900;49.306;8.500;2023-04-25T05:27:26;4.60;;;4.00;;
9722;SDS011;4900;49.306;8.500;2023-04-25T05:29:51;4.47;;;3.60;;
9722;SDS011;4900;49.306;8.500;2023-04-25T05:32:17;4.00;;;3.40;;
9722;SDS011;4900;49.306;8.500;2023-04-25T05:34:43;3.30;;;2.90;;
9722;SDS011;4900;49.306;8.500;2023-04-25T05:37:08;3.73;;;3.27;;
9722;SDS011;4900;49.306;8.500;2023-04-25T05:39:34;3.83;;;3.13;;
9722;SDS011;4900;49.306;8.500;2023-04-25T05:41:59;3.73;;;3.33;;
9722;SDS011;4900;49.306;8.500;2023-04-25T05:44:26;4.00;;;3.60;;
9722;SDS011;4900;49.306;8.500;2023-04-25T05:46:51;4.70;;;3.70;;
9722;SDS011;4900;49.306;8.500;2023-04-25T05:49:17;3.77;;;3.23;;
9722;SDS011;4900;49.306;8.500;2023-04-25T05:51:42;3.87;;;3.30;;
9722;SDS011;4900;49.306;8.500;2023-04-25T05:54:08;5.07;;;4.50;;
9722;SDS011;4900;49.306;8.500;2023-04-25T05:56:33;3.70;;;3.03;;
9722;SDS011;4900;49.306;8.500;2023-04-25T05:58:58;4.93;;;4.20;;
9722;SDS011;4900;49.306;8.500;2023-04-25T06:01:24;4.37;;;3.53;;
9722;SDS011;4900;49.306;8.500;2023-04-25T06:03:50;3.70;;;3.20;;
9722;SDS011;4900;49.306;8.500;2023-04-25T06:06:17;4.63;;;3.80;;
9722;SDS011;4900;49.306;8.500;2023-04-25T06:08:43;4.70;;;3.93;;
9722;SDS011;4900;49.306;8.500;2023-04-25T06:11:08;4.47;;;3.60;;
9722;SDS011;4900;49.306;8.500;2023-04-25T06:13:34;4.80;;;3.90;;
9722;SDS011;4900;49.306;8.500;2023-04-25T06:15:59;4.33;;;3.63;;
9722;SDS011;4900;49.306;8.500;2023-04-25T06:18:26;4.10;;;3.70;;
9722;SDS011;4900;49.306;8.500;2023-04-25T06:20:51;4.63;;;3.63;;
9722;SDS011;4900;49.306;8.500;2023-04-25T06:23:17;5.20;;;3.57;;
9722;SDS011;4900;49.306;8.500;2023-04-25T06:25:42;3.80;;;3.27;;
9722;SDS011;4900;49.306;8.500;2023-04-25T06:28:08;5.03;;;4.07;;
9722;SDS011;4900;49.306;8.500;2023-04-25T06:30:33;5.00;;;3.93;;
9722;SDS011;4900;49.306;8.500;2023-04-25T06:32:58;4.33;;;3.90;;
9722;SDS011;4900;49.306;8.500;2023-04-25T06:35:24;4.97;;;3.93;;
9722;SDS011;4900;49.306;8.500;2023-04-25T06:37:49;4.93;;;4.00;;
9722;SDS011;4900;49.306;8.500;2023-04-25T06:40:16;4.77;;;3.80;;
9722;SDS011;4900;49.306;8.500;2023-04-25T06:42:42;4.03;;;3.43;;
9722;SDS011;4900;49.306;8.500;2023-04-25T06:45:08;4.25;;;3.55;;
9722;SDS011;4900;49.306;8.500;2023-04-25T06:47:33;4.20;;;3.60;;
9722;SDS011;4900;49.306;8.500;2023-04-25T06:49:59;4.93;;;4.30;;
9722;SDS011;4900;49.306;8.500;2023-04-25T06:52:24;4.95;;;4.00;;
9722;SDS011;4900;49.306;8.500;2023-04-25T06:54:50;4.45;;;3.78;;
9722;SDS011;4900;49.306;8.500;2023-04-25T06:57:15;6.30;;;4.97;;
9722;SDS011;4900;49.306;8.500;2023-04-25T06:59:40;4.95;;;4.15;;
9722;SDS011;4900;49.306;8.500;2023-04-25T07:02:06;5.55;;;4.57;;
9722;SDS011;4900;49.306;8.500;2023-04-25T07:04:31;4.80;;;3.72;;
9722;SDS011;4900;49.306;8.500;2023-04-25T07:06:57;5.35;;;4.13;;
9722;SDS011;4900;49.306;8.500;2023-04-25T07:09:22;5.00;;;4.50;;
9722;SDS011;4900;49.306;8.500;2023-04-25T07:11:48;5.38;;;4.03;;
9722;SDS011;4900;49.306;8.500;2023-04-25T07:14:13;4.50;;;3.95;;
9722;SDS011;4900;49.306;8.500;2023-04-25T07:16:39;5.82;;;4.82;;
9722;SDS011;4900;49.306;8.500;2023-04-25T07:19:04;5.25;;;4.55;;
9722;SDS011;4900;49.306;8.500;2023-04-25T07:21:30;5.07;;;4.30;;
9722;SDS011;4900;49.306;8.500;2023-04-25T07:23:56;5.68;;;4.88;;
9722;SDS011;4900;49.306;8.500;2023-04-25T07:26:22;6.15;;;4.72;;
9722;SDS011;4900;49.306;8.500;2023-04-25T07:28:47;7.90;;;5.57;;
9722;SDS011;4900;49.306;8.500;2023-04-25T07:31:16;6.10;;;4.80;;
9722;SDS011;4900;49.306;8.500;2023-04-25T07:33:43;4.57;;;3.80;;
9722;SDS011;4900;49.306;8.500;2023-04-25T07:36:10;6.63;;;4.30;;
9722;SDS011;4900;49.306;8.500;2023-04-25T07:38:35;5.25;;;4.03;;
9722;SDS011;4900;49.306;8.500;2023-04-25T07:41:01;4.82;;;4.05;;
9722;SDS011;4900;49.306;8.500;2023-04-25T07:43:26;6.15;;;4.32;;
9722;SDS011;4900;49.306;8.500;2023-04-25T07:45:52;6.43;;;4.25;;
9722;SDS011;4900;49.306;8.500;2023-04-25T07:48:17;6.45;;;4.85;;
9722;SDS011;4900;49.306;8.500;2023-04-25T07:50:46;7.55;;;5.35;;
9722;SDS011;4900;49.306;8.500;2023-04-25T07:53:11;6.93;;;5.20;;
9722;SDS011;4900;49.306;8.500;2023-04-25T07:55:37;6.40;;;5.30;;
9722;SDS011;4900;49.306;8.500;2023-04-25T07:58:05;6.85;;;5.00;;
9722;SDS011;4900;49.306;8.500;2023-04-25T08:00:31;6.70;;;5.22;;
9722;SDS011;4900;49.306;8.500;2023-04-25T08:02:56;5.88;;;4.82;;
9722;SDS011;4900;49.306;8.500;2023-04-25T08:05:22;6.78;;;4.80;;
9722;SDS011;4900;49.306;8.500;2023-04-25T08:07:47;5.63;;;3.92;;
9722;SDS011;4900;49.306;8.500;2023-04-25T08:10:13;5.00;;;3.70;;
9722;SDS011;4900;49.306;8.500;2023-04-25T08:12:38;6.55;;;3.65;;
9722;SDS011;4900;49.306;8.500;2023-04-25T08:15:05;5.85;;;4.03;;
9722;SDS011;4900;49.306;8.500;2023-04-25T08:17:31;6.03;;;3.88;;
9722;SDS011;4900;49.306;8.500;2023-04-25T08:19:56;4.75;;;3.88;;
9722;SDS011;4900;49.306;8.500;2023-04-25T08:22:22;4.45;;;3.42;;
9722;SDS011;4900;49.306;8.500;2023-04-25T08:24:48;5.57;;;3.95;;
9722;SDS011;4900;49.306;8.500;2023-04-25T08:27:13;3.90;;;3.38;;
9722;SDS011;4900;49.306;8.500;2023-04-25T08:29:38;4.72;;;3.10;;
9722;SDS011;4900;49.306;8.500;2023-04-25T08:32:04;4.32;;;3.13;;
9722;SDS011;4900;49.306;8.500;2023-04-25T08:34:30;5.47;;;3.88;;
9722;SDS011;4900;49.306;8.500;2023-04-25T08:36:55;5.28;;;3.40;;
9722;SDS011;4900;49.306;8.500;2023-04-25T08:39:21;5.55;;;3.58;;
9722;SDS011;4900;49.306;8.500;2023-04-25T08:41:46;6.32;;;3.60;;
9722;SDS011;4900;49.306;8.500;2023-04-25T08:44:12;6.82;;;3.95;;
9722;SDS011;4900;49.306;8.500;2023-04-25T08:46:38;4.70;;;3.72;;
9722;SDS011;4900;49.306;8.500;2023-04-25T08:49:05;6.88;;;4.43;;
9722;SDS011;4900;49.306;8.500;2023-04-25T08:51:34;6.60;;;4.50;;
9722;SDS011;4900;49.306;8.500;2023-04-25T08:54:11;5.72;;;3.83;;
9722;SDS011;4900;49.306;8.500;2023-04-25T08:56:41;6.13;;;4.82;;
9722;SDS011;4900;49.306;8.500;2023-04-25T08:59:09;8.23;;;5.78;;
9722;SDS011;4900;49.306;8.500;2023-04-25T09:01:37;7.88;;;5.03;;
9722;SDS011;4900;49.306;8.500;2023-04-25T09:04:02;5.95;;;4.28;;
9722;SDS011;4900;49.306;8.500;2023-04-25T09:06:28;9.73;;;5.00;;
9722;SDS011;4900;49.306;8.500;2023-04-25T09:08:55;7.65;;;5.18;;
9722;SDS011;4900;49.306;8.500;2023-04-25T09:11:27;7.78;;;5.25;;
9722;SDS011;4900;49.306;8.500;2023-04-25T09:14:09;7.75;;;4.72;;
9722;SDS011;4900;49.306;8.500;2023-04-25T09:19:26;9.10;;;5.05;;
9722;SDS011;4900;49.306;8.500;2023-04-25T09:21:56;8.27;;;5.72;;
9722;SDS011;4900;49.306;8.500;2023-04-25T09:24:36;7.30;;;5.13;;
9722;SDS011;4900;49.306;8.500;2023-04-25T09:27:18;7.55;;;5.18;;
9722;SDS011;4900;49.306;8.500;2023-04-25T09:29:47;6.63;;;5.18;;
9722;SDS011;4900;49.306;8.500;2023-04-25T09:34:49;7.68;;;5.35;;
9722;SDS011;4900;49.306;8.500;2023-04-25T09:37:19;6.05;;;4.63;;
9722;SDS011;4900;49.306;8.500;2023-04-25T09:39:59;7.45;;;5.03;;
9722;SDS011;4900;49.306;8.500;2023-04-25T09:42:28;7.47;;;4.97;;
9722;SDS011;4900;49.306;8.500;2023-04-25T09:44:56;7.57;;;4.95;;
9722;SDS011;4900;49.306;8.500;2023-04-25T09:47:26;5.53;;;4.05;;
9722;SDS011;4900;49.306;8.500;2023-04-25T09:49:53;7.55;;;4.88;;
9722;SDS011;4900;49.306;8.500;2023-04-25T09:52:23;7.75;;;4.93;;
9722;SDS011;4900;49.306;8.500;2023-04-25T09:54:50;6.75;;;4.82;;
9722;SDS011;4900;49.306;8.500;2023-04-25T09:57:18;6.13;;;4.10;;
9722;SDS011;4900;49.306;8.500;2023-04-25T09:59:48;4.93;;;3.67;;
9722;SDS011;4900;49.306;8.500;2023-04-25T10:02:18;5.93;;;4.57;;
9722;SDS011;4900;49.306;8.500;2023-04-25T10:04:49;5.82;;;4.55;;
9722;SDS011;4900;49.306;8.500;2023-04-25T10:07:18;6.43;;;4.13;;
9722;SDS011;4900;49.306;8.500;2023-04-25T10:09:47;5.28;;;3.40;;
9722;SDS011;4900;49.306;8.500;2023-04-25T10:12:15;5.63;;;3.55;;
9722;SDS011;4900;49.306;8.500;2023-04-25T10:14:42;5.68;;;3.78;;
9722;SDS011;4900;49.306;8.500;2023-04-25T10:17:08;5.72;;;3.70;;
9722;SDS011;4900;49.306;8.500;2023-04-25T12:44:24;3.40;;;3.10;;
9722;SDS011;4900;49.306;8.500;2023-04-25T12:46:49;4.15;;;3.35;;
9722;SDS011;4900;49.306;8.500;2023-04-25T12:49:15;3.58;;;3.03;;
9722;SDS011;4900;49.306;8.500;2023-04-25T12:51:40;3.67;;;3.15;;
9722;SDS011;4900;49.306;8.500;2023-04-25T12:54:06;4.80;;;3.60;;
9722;SDS011;4900;49.306;8.500;2023-04-25T12:56:33;3.50;;;3.20;;
9722;SDS011;4900;49.306;8.500;2023-04-25T12:59:00;3.33;;;2.97;;
9722;SDS011;4900;49.306;8.500;2023-04-25T13:01:27;4.10;;;3.55;;
9722;SDS011;4900;49.306;8.500;2023-04-25T13:03:53;3.40;;;3.10;;
9722;SDS011;4900;49.306;8.500;2023-04-25T13:06:19;3.55;;;2.80;;
9722;SDS011;4900;49.306;8.500;2023-04-25T13:08:45;3.35;;;2.92;;
9722;SDS011;4900;49.306;8.500;2023-04-25T13:11:11;2.80;;;2.50;;
9722;SDS011;4900;49.306;8.500;2023-04-25T13:13:37;2.90;;;2.55;;
9722;SDS011;4900;49.306;8.500;2023-04-25T13:16:06;3.55;;;2.72;;
9722;SDS011;4900;49.306;8.500;2023-04-25T13:18:32;3.08;;;2.78;;
9722;SDS011;4900;49.306;8.500;2023-04-25T13:20:58;2.92;;;2.70;;
9722;SDS011;4900;49.306;8.500;2023-04-25T13:23:28;3.03;;;2.75;;
9722;SDS011;4900;49.306;8.500;2023-04-25T13:25:54;3.22;;;2.65;;
9722;SDS011;4900;49.306;8.500;2023-04-25T13:28:22;2.88;;;2.67;;
9722;SDS011;4900;49.306;8.500;2023-04-25T13:30:48;2.95;;;2.58;;
9722;SDS011;4900;49.306;8.500;2023-04-25T13:33:14;3.05;;;2.75;;
9722;SDS011;4900;49.306;8.500;2023-04-25T13:35:40;3.00;;;2.70;;
9722;SDS011;4900;49.306;8.500;2023-04-25T13:38:06;3.35;;;3.05;;
9722;SDS011;4900;49.306;8.500;2023-04-25T13:40:32;3.15;;;2.85;;
9722;SDS011;4900;49.306;8.500;2023-04-25T13:42:57;4.70;;;3.20;;
9722;SDS011;4900;49.306;8.500;2023-04-25T13:45:24;3.30;;;2.90;;
9722;SDS011;4900;49.306;8.500;2023-04-25T13:47:50;4.25;;;2.90;;
9722;SDS011;4900;49.306;8.500;2023-04-25T13:50:15;3.95;;;2.80;;
9722;SDS011;4900;49.306;8.500;2023-04-25T13:52:41;3.40;;;3.10;;
9722;SDS011;4900;49.306;8.500;2023-04-25T13:55:07;3.63;;;3.13;;
9722;SDS011;4900;49.306;8.500;2023-04-25T13:57:33;4.57;;;3.45;;
9722;SDS011;4900;49.306;8.500;2023-04-25T13:59:59;3.08;;;2.75;;
9722;SDS011;4900;49.306;8.500;2023-04-25T14:02:29;4.28;;;2.97;;
9722;SDS011;4900;49.306;8.500;2023-04-25T14:04:55;4.20;;;3.00;;
9722;SDS011;4900;49.306;8.500;2023-04-25T14:07:21;3.70;;;3.13;;
9722;SDS011;4900;49.306;8.500;2023-04-25T14:09:46;3.78;;;3.30;;
9722;SDS011;4900;49.306;8.500;2023-04-25T14:12:12;4.57;;;2.95;;
9722;SDS011;4900;49.306;8.500;2023-04-25T14:14:37;2.78;;;2.53;;
9722;SDS011;4900;49.306;8.500;2023-04-25T14:17:03;4.47;;;3.53;;
9722;SDS011;4900;49.306;8.500;2023-04-25T14:19:28;3.70;;;3.10;;
9722;SDS011;4900;49.306;8.500;2023-04-25T14:21:54;4.25;;;3.53;;
9722;SDS011;4900;49.306;8.500;2023-04-25T14:24:20;4.95;;;3.58;;
9722;SDS011;4900;49.306;8.500;2023-04-25T14:26:46;3.92;;;3.25;;
9722;SDS011;4900;49.306;8.500;2023-04-25T14:29:11;4.25;;;3.38;;
9722;SDS011;4900;49.306;8.500;2023-04-25T14:31:37;4.80;;;3.33;;
9722;SDS011;4900;49.306;8.500;2023-04-25T14:34:04;3.80;;;3.10;;
9722;SDS011;4900;49.306;8.500;2023-04-25T14:36:30;4.30;;;3.33;;
9722;SDS011;4900;49.306;8.500;2023-04-25T14:38:57;5.07;;;3.75;;
9722;SDS011;4900;49.306;8.500;2023-04-25T14:41:23;5.10;;;3.40;;
9722;SDS011;4900;49.306;8.500;2023-04-25T14:43:50;6.28;;;3.70;;
9722;SDS011;4900;49.306;8.500;2023-04-25T14:46:15;3.85;;;3.45;;
9722;SDS011;4900;49.306;8.500;2023-04-25T14:48:41;5.03;;;3.67;;
9722;SDS011;4900;49.306;8.500;2023-04-25T14:51:07;5.15;;;3.40;;
9722;SDS011;4900;49.306;8.500;2023-04-25T14:53:32;5.30;;;3.30;;
9722;SDS011;4900;49.306;8.500;2023-04-25T14:55:57;3.45;;;3.00;;
9722;SDS011;4900;49.306;8.500;2023-04-25T14:58:23;5.00;;;3.03;;
9722;SDS011;4900;49.306;8.500;2023-04-25T15:00:49;3.78;;;3.17;;
9722;SDS011;4900;49.306;8.500;2023-04-25T15:03:15;3.90;;;3.50;;
9722;SDS011;4900;49.306;8.500;2023-04-25T15:05:42;4.00;;;2.95;;
9722;SDS011;4900;49.306;8.500;2023-04-25T15:08:08;3.80;;;3.13;;
9722;SDS011;4900;49.306;8.500;2023-04-25T15:10:35;4.25;;;3.40;;
9722;SDS011;4900;49.306;8.500;2023-04-25T15:13:01;4.82;;;3.00;;
9722;SDS011;4900;49.306;8.500;2023-04-25T15:15:26;4.30;;;3.20;;
9722;SDS011;4900;49.306;8.500;2023-04-25T15:17:52;3.30;;;3.00;;
9722;SDS011;4900;49.306;8.500;2023-04-25T15:20:21;3.83;;;2.92;;
9722;SDS011;4900;49.306;8.500;2023-04-25T15:22:47;3.90;;;3.20;;
9722;SDS011;4900;49.306;8.500;2023-04-25T15:25:14;3.50;;;3.08;;
9722;SDS011;4900;49.306;8.500;2023-04-25T15:27:41;2.95;;;2.65;;
9722;SDS011;4900;49.306;8.500;2023-04-25T15:30:08;4.28;;;3.25;;
9722;SDS011;4900;49.306;8.500;2023-04-25T15:32:36;3.92;;;3.35;;
9722;SDS011;4900;49.306;8.500;2023-04-25T15:35:03;4.18;;;2.90;;
9722;SDS011;4900;49.306;8.500;2023-04-25T15:37:30;4.40;;;3.00;;
9722;SDS011;4900;49.306;8.500;2023-04-25T15:40:09;4.72;;;2.97;;
9722;SDS011;4900;49.306;8.500;2023-04-25T15:45:07;4.03;;;3.10;;
9722;SDS011;4900;49.306;8.500;2023-04-25T15:47:34;4.28;;;3.42;;
9722;SDS011;4900;49.306;8.500;2023-04-25T15:50:01;3.90;;;3.50;;
9722;SDS011;4900;49.306;8.500;2023-04-25T15:52:28;5.43;;;3.47;;
9722;SDS011;4900;49.306;8.500;2023-04-25T15:54:57;3.60;;;2.95;;
9722;SDS011;4900;49.306;8.500;2023-04-25T15:57:22;4.70;;;3.05;;
9722;SDS011;4900;49.306;8.500;2023-04-25T15:59:48;3.55;;;3.03;;
9722;SDS011;4900;49.306;8.500;2023-04-25T16:02:14;3.83;;;3.42;;
9722;SDS011;4900;49.306;8.500;2023-04-25T16:04:41;4.30;;;2.90;;
9722;SDS011;4900;49.306;8.500;2023-04-25T16:07:06;4.85;;;3.20;;
9722;SDS011;4900;49.306;8.500;2023-04-25T16:09:33;4.32;;;3.00;;
9722;SDS011;4900;49.306;8.500;2023-04-25T16:12:00;3.97;;;2.90;;
9722;SDS011;4900;49.306;8.500;2023-04-25T16:14:26;3.22;;;2.70;;
9722;SDS011;4900;49.306;8.500;2023-04-25T16:16:52;3.92;;;3.35;;
9722;SDS011;4900;49.306;8.500;2023-04-25T16:19:18;3.65;;;2.88;;
9722;SDS011;4900;49.306;8.500;2023-04-25T16:21:43;3.95;;;3.00;;
9722;SDS011;4900;49.306;8.500;2023-04-25T16:24:09;4.20;;;3.47;;
9722;SDS011;4900;49.306;8.500;2023-04-25T16:26:34;3.40;;;3.10;;
9722;SDS011;4900;49.306;8.500;2023-04-25T16:29:03;3.85;;;3.10;;
9722;SDS011;4900;49.306;8.500;2023-04-25T16:31:29;4.70;;;3.30;;
9722;SDS011;4900;49.306;8.500;2023-04-25T16:33:54;4.22;;;3.33;;
9722;SDS011;4900;49.306;8.500;2023-04-25T16:36:20;3.60;;;2.78;;
9722;SDS011;4900;49.306;8.500;2023-04-25T16:38:46;3.22;;;2.90;;
9722;SDS011;4900;49.306;8.500;2023-04-25T16:41:11;4.28;;;2.95;;
9722;SDS011;4900;49.306;8.500;2023-04-25T16:43:37;4.22;;;3.10;;
9722;SDS011;4900;49.306;8.500;2023-04-25T16:46:04;3.78;;;2.80;;
9722;SDS011;4900;49.306;8.500;2023-04-25T16:48:30;4.07;;;3.00;;
9722;SDS011;4900;49.306;8.500;2023-04-25T16:50:56;3.30;;;2.30;;
9722;SDS011;4900;49.306;8.500;2023-04-25T16:53:22;3.08;;;2.40;;
9722;SDS011;4900;49.306;8.500;2023-04-25T16:55:47;3.17;;;2.85;;
9722;SDS011;4900;49.306;8.500;2023-04-25T16:58:13;3.70;;;2.70;;
9722;SDS011;4900;49.306;8.500;2023-04-25T17:00:39;3.20;;;2.60;;
9722;SDS011;4900;49.306;8.500;2023-04-25T17:03:06;4.03;;;2.75;;
9722;SDS011;4900;49.306;8.500;2023-04-25T17:05:32;7.43;;;5.82;;
9722;SDS011;4900;49.306;8.500;2023-04-25T17:07:58;4.00;;;3.08;;
9722;SDS011;4900;49.306;8.500;2023-04-25T17:10:23;3.95;;;3.53;;
9722;SDS011;4900;49.306;8.500;2023-04-25T17:12:49;9.52;;;6.25;;
9722;SDS011;4900;49.306;8.500;2023-04-25T17:15:15;4.72;;;3.60;;
9722;SDS011;4900;49.306;8.500;2023-04-25T17:17:41;6.45;;;4.53;;
9722;SDS011;4900;49.306;8.500;2023-04-25T17:20:08;4.68;;;3.78;;
9722;SDS011;4900;49.306;8.500;2023-04-25T17:22:34;5.20;;;3.83;;
9722;SDS011;4900;49.306;8.500;2023-04-25T17:25:04;5.20;;;3.60;;
9722;SDS011;4900;49.306;8.500;2023-04-25T17:27:31;4.40;;;3.95;;
9722;SDS011;4900;49.306;8.500;2023-04-25T17:30:05;4.25;;;3.47;;
9722;SDS011;4900;49.306;8.500;2023-04-25T17:32:32;5.22;;;3.33;;
9722;SDS011;4900;49.306;8.500;2023-04-25T17:34:58;5.55;;;3.30;;
9722;SDS011;4900;49.306;8.500;2023-04-25T17:37:24;3.40;;;3.10;;
9722;SDS011;4900;49.306;8.500;2023-04-25T17:39:53;5.57;;;3.33;;
9722;SDS011;4900;49.306;8.500;2023-04-25T17:42:19;3.47;;;3.17;;